Terminal Aerodrome Forecast
Issued by NWS

Home | Current Version | Previous Version | Text Only | Print | Product List | Glossary On
Versions: 1 2 3 4 5 6 7 8 9 10 11 12 13 14 15
000
FTUS46 KSEW 292336
TAFCLM
TAF
KCLM 292336Z 3000/3024 36006KT P6SM SKC
     FM300300 28006KT P6SM SKC
     FM301200 VRB03KT P6SM SKC
     FM301700 07006KT P6SM SKC
     FM302200 03005KT P6SM SKC=

USA.gov is the U.S. government's official web portal to all federal, state and local government web resources and services.